Startpagina
METAR-TAF:

METAR-TAF

Vliegvelden :

McCall Municipal Airport

McCall, Idaho, Verenigde Staten

breedte: 44-53-00N, lengte: 116-05-58W, hoogte: 1530 m

Actueel weer

Dit bericht is 12 minuten geleden gemaakt, om 02:51 UTC
Wind 4 kt uit het noordnoordoosten
Temperatuur -7°C
Vochtigheid 93%
Druk 1024 hPa
Zicht: 16.1 km
Onbewolkt

METAR: KMYL 240251Z AUTO 02004KT 10SM CLR M07/M08 A3023 RMK AO2 SLP283 60000 T10671078 53016

Tijdstip: 20:03 (03:03 UTC)

Verwachting

Dit bericht is 1 uur en het 18 minuten geleden gemaakt, om 01:45 UTC
Verwachting geldig van 24 om 02 UTC tot 24 om 24 UTC
Wind 3 kt uit variabele richting
Zicht: 1.6 km
Verspreide wolken op 1000 ft
nevel
Van 24 om 0600 UTC
Wind 3 kt uit variabele richting
Zicht: 0.8 km
Geheel bewolkt op 500 ft
onderkoelde mist
Van 24 om 1700 UTC
Wind 3 kt uit variabele richting
Zicht: 10 km
Verspreide wolken op 1000 ft

TAF: KMYL 240145Z 2402/2424 VRB03KT 1SM BR SCT010 FM240600 VRB03KT 1/2SM FZFG OVC005 FM241700 VRB03KT P6SM SCT010

Waarnemingen en weersverwachtingen van meer dan 4000 vliegvelden (METAR en TAF).

De beschikbare stations zijn de gele en rode punten op de kaart.

Ga met uw muis naar het station om de naam te zien.

Klik dan om waarnemingen en weersverwachtingen te zien.

kaart wijzigen: klik op de groene knoppen met een zwart kruis om in te zoomen, op de groene knop met een streepje om uit te zoomen of op de groene pijlen voor aangrenzende kaarten.


METAR-TAF: